sensor_id;sensor_type;location;lat;lon;timestamp;P1;durP1;ratioP1;P2;durP2;ratioP2
63581;SDS011;49727;51.078;17.066;2023-07-22T00:06:58;5.00;;;2.70;;
63581;SDS011;49727;51.078;17.066;2023-07-22T00:21:58;6.22;;;2.63;;
63581;SDS011;49727;51.078;17.066;2023-07-22T00:36:59;7.93;;;2.63;;
63581;SDS011;49727;51.078;17.066;2023-07-22T00:52:00;4.97;;;2.78;;
63581;SDS011;49727;51.078;17.066;2023-07-22T01:07:03;3.50;;;2.73;;
63581;SDS011;49727;51.078;17.066;2023-07-22T01:22:07;4.50;;;3.47;;
63581;SDS011;49727;51.078;17.066;2023-07-22T01:37:07;4.68;;;3.15;;
63581;SDS011;49727;51.078;17.066;2023-07-22T01:52:09;5.80;;;4.03;;
63581;SDS011;49727;51.078;17.066;2023-07-22T02:07:09;4.78;;;3.58;;
63581;SDS011;49727;51.078;17.066;2023-07-22T02:22:10;5.95;;;4.13;;
63581;SDS011;49727;51.078;17.066;2023-07-22T02:37:10;7.35;;;4.53;;
63581;SDS011;49727;51.078;17.066;2023-07-22T02:52:10;8.15;;;5.47;;
63581;SDS011;49727;51.078;17.066;2023-07-22T03:07:11;4.88;;;4.30;;
63581;SDS011;49727;51.078;17.066;2023-07-22T03:22:14;7.38;;;4.38;;
63581;SDS011;49727;51.078;17.066;2023-07-22T03:37:18;6.40;;;4.50;;
63581;SDS011;49727;51.078;17.066;2023-07-22T03:52:20;5.53;;;4.37;;
63581;SDS011;49727;51.078;17.066;2023-07-22T04:07:21;5.18;;;4.10;;
63581;SDS011;49727;51.078;17.066;2023-07-22T04:22:21;7.43;;;4.28;;
63581;SDS011;49727;51.078;17.066;2023-07-22T04:37:22;6.68;;;4.07;;
63581;SDS011;49727;51.078;17.066;2023-07-22T04:52:22;6.07;;;3.40;;
63581;SDS011;49727;51.078;17.066;2023-07-22T05:07:22;5.88;;;3.00;;
63581;SDS011;49727;51.078;17.066;2023-07-22T05:22:23;7.80;;;3.10;;
63581;SDS011;49727;51.078;17.066;2023-07-22T05:37:24;3.53;;;2.10;;
63581;SDS011;49727;51.078;17.066;2023-07-22T05:52:24;3.23;;;2.10;;
63581;SDS011;49727;51.078;17.066;2023-07-22T06:07:25;3.45;;;2.50;;
63581;SDS011;49727;51.078;17.066;2023-07-22T06:22:25;4.72;;;2.40;;
63581;SDS011;49727;51.078;17.066;2023-07-22T06:37:25;6.82;;;2.50;;
63581;SDS011;49727;51.078;17.066;2023-07-22T06:52:26;4.55;;;2.60;;
63581;SDS011;49727;51.078;17.066;2023-07-22T07:07:26;4.38;;;2.50;;
63581;SDS011;49727;51.078;17.066;2023-07-22T07:22:26;4.63;;;2.60;;
63581;SDS011;49727;51.078;17.066;2023-07-22T07:37:27;2.90;;;2.40;;
63581;SDS011;49727;51.078;17.066;2023-07-22T07:52:27;2.73;;;2.20;;
63581;SDS011;49727;51.078;17.066;2023-07-22T08:07:27;3.83;;;2.17;;
63581;SDS011;49727;51.078;17.066;2023-07-22T08:22:28;3.47;;;2.00;;
63581;SDS011;49727;51.078;17.066;2023-07-22T08:52:28;2.57;;;1.60;;
63581;SDS011;49727;51.078;17.066;2023-07-22T09:07:29;2.23;;;1.47;;
63581;SDS011;49727;51.078;17.066;2023-07-22T09:22:31;3.00;;;1.50;;
63581;SDS011;49727;51.078;17.066;2023-07-22T09:37:38;3.77;;;1.60;;
63581;SDS011;49727;51.078;17.066;2023-07-22T09:52:45;3.97;;;1.70;;
63581;SDS011;49727;51.078;17.066;2023-07-22T10:07:51;4.17;;;1.70;;
63581;SDS011;49727;51.078;17.066;2023-07-22T10:22:56;2.33;;;1.60;;
63581;SDS011;49727;51.078;17.066;2023-07-22T10:38:06;3.58;;;1.65;;
63581;SDS011;49727;51.078;17.066;2023-07-22T10:53:09;3.40;;;1.80;;
63581;SDS011;49727;51.078;17.066;2023-07-22T11:08:10;4.87;;;2.67;;
63581;SDS011;49727;51.078;17.066;2023-07-22T11:23:11;4.05;;;2.22;;
63581;SDS011;49727;51.078;17.066;2023-07-22T11:38:14;3.35;;;1.90;;
63581;SDS011;49727;51.078;17.066;2023-07-22T11:53:14;3.03;;;1.60;;
63581;SDS011;49727;51.078;17.066;2023-07-22T12:08:15;3.30;;;1.50;;
63581;SDS011;49727;51.078;17.066;2023-07-22T12:23:15;2.53;;;1.45;;
63581;SDS011;49727;51.078;17.066;2023-07-22T12:38:15;3.30;;;1.70;;
63581;SDS011;49727;51.078;17.066;2023-07-22T12:53:16;2.60;;;1.48;;
63581;SDS011;49727;51.078;17.066;2023-07-22T13:08:16;2.90;;;1.52;;
63581;SDS011;49727;51.078;17.066;2023-07-22T13:23:17;3.90;;;1.30;;
63581;SDS011;49727;51.078;17.066;2023-07-22T13:38:17;3.80;;;1.50;;
63581;SDS011;49727;51.078;17.066;2023-07-22T13:53:17;4.22;;;1.50;;
63581;SDS011;49727;51.078;17.066;2023-07-22T14:08:18;2.67;;;1.52;;
63581;SDS011;49727;51.078;17.066;2023-07-22T14:23:18;2.30;;;1.42;;
63581;SDS011;49727;51.078;17.066;2023-07-22T14:38:18;3.08;;;1.50;;
63581;SDS011;49727;51.078;17.066;2023-07-22T14:53:19;2.58;;;1.73;;
63581;SDS011;49727;51.078;17.066;2023-07-22T15:08:19;3.92;;;2.28;;
63581;SDS011;49727;51.078;17.066;2023-07-22T15:23:19;5.07;;;1.75;;
63581;SDS011;49727;51.078;17.066;2023-07-22T15:38:20;3.95;;;1.63;;
63581;SDS011;49727;51.078;17.066;2023-07-22T15:53:20;5.20;;;1.88;;
63581;SDS011;49727;51.078;17.066;2023-07-22T16:08:21;4.63;;;1.98;;
63581;SDS011;49727;51.078;17.066;2023-07-22T16:23:21;3.90;;;1.70;;
63581;SDS011;49727;51.078;17.066;2023-07-22T16:38:22;3.03;;;1.42;;
63581;SDS011;49727;51.078;17.066;2023-07-22T16:53:22;3.40;;;1.95;;
63581;SDS011;49727;51.078;17.066;2023-07-22T17:08:22;4.05;;;1.83;;
63581;SDS011;49727;51.078;17.066;2023-07-22T17:23:23;2.67;;;1.45;;
63581;SDS011;49727;51.078;17.066;2023-07-22T17:38:23;3.88;;;1.98;;
63581;SDS011;49727;51.078;17.066;2023-07-22T17:53:24;2.90;;;1.70;;
63581;SDS011;49727;51.078;17.066;2023-07-22T18:08:24;10.40;;;3.40;;
63581;SDS011;49727;51.078;17.066;2023-07-22T18:23:25;4.87;;;2.13;;
63581;SDS011;49727;51.078;17.066;2023-07-22T18:38:25;6.07;;;2.30;;
63581;SDS011;49727;51.078;17.066;2023-07-22T18:53:27;6.73;;;2.47;;
63581;SDS011;49727;51.078;17.066;2023-07-22T19:08:27;6.47;;;2.37;;
63581;SDS011;49727;51.078;17.066;2023-07-22T19:23:28;6.60;;;3.50;;
63581;SDS011;49727;51.078;17.066;2023-07-22T19:38:29;7.90;;;3.40;;
63581;SDS011;49727;51.078;17.066;2023-07-22T19:53:29;11.05;;;6.07;;
63581;SDS011;49727;51.078;17.066;2023-07-22T20:08:30;9.60;;;5.10;;
63581;SDS011;49727;51.078;17.066;2023-07-22T20:23:31;18.45;;;10.27;;
63581;SDS011;49727;51.078;17.066;2023-07-22T20:38:31;17.05;;;9.45;;
63581;SDS011;49727;51.078;17.066;2023-07-22T20:53:32;15.33;;;9.10;;
63581;SDS011;49727;51.078;17.066;2023-07-22T21:08:32;10.90;;;5.13;;
63581;SDS011;49727;51.078;17.066;2023-07-22T21:23:33;8.57;;;4.43;;
63581;SDS011;49727;51.078;17.066;2023-07-22T21:38:34;8.88;;;4.47;;
63581;SDS011;49727;51.078;17.066;2023-07-22T21:53:35;7.77;;;5.17;;
63581;SDS011;49727;51.078;17.066;2023-07-22T22:08:36;10.85;;;4.53;;
63581;SDS011;49727;51.078;17.066;2023-07-22T22:23:36;7.65;;;4.43;;
63581;SDS011;49727;51.078;17.066;2023-07-22T22:38:36;10.73;;;6.70;;
63581;SDS011;49727;51.078;17.066;2023-07-22T22:53:37;10.38;;;6.97;;
63581;SDS011;49727;51.078;17.066;2023-07-22T23:08:37;8.18;;;5.25;;
63581;SDS011;49727;51.078;17.066;2023-07-22T23:23:38;7.38;;;5.22;;
63581;SDS011;49727;51.078;17.066;2023-07-22T23:38:38;9.48;;;5.40;;
63581;SDS011;49727;51.078;17.066;2023-07-22T23:53:40;9.63;;;6.30;;
